createdAt,value
2018-04-10T00:02:04.949Z,13.90
2018-04-10T00:04:32.470Z,13.90
2018-04-10T00:06:59.961Z,13.90
2018-04-10T00:09:27.496Z,13.90
2018-04-10T00:11:55.030Z,13.90
2018-04-10T00:14:23.315Z,13.90
2018-04-10T00:16:51.581Z,13.90
2018-04-10T00:19:19.105Z,13.90
2018-04-10T00:21:46.590Z,13.90
2018-04-10T00:24:14.109Z,13.90
2018-04-10T00:26:41.597Z,13.80
2018-04-10T00:29:09.883Z,13.60
2018-04-10T00:31:37.416Z,13.60
2018-04-10T00:34:04.908Z,13.50
2018-04-10T00:36:32.445Z,13.50
2018-04-10T00:38:59.929Z,13.50
2018-04-10T00:41:27.457Z,13.60
2018-04-10T00:43:54.938Z,13.60
2018-04-10T00:46:22.457Z,13.60
2018-04-10T00:48:49.958Z,13.50
2018-04-10T00:51:18.302Z,13.40
2018-04-10T00:53:45.789Z,13.40
2018-04-10T00:56:13.311Z,13.40
2018-04-10T00:58:40.809Z,13.30
2018-04-10T01:01:08.331Z,13.40
2018-04-10T01:03:36.591Z,13.30
2018-04-10T01:06:04.124Z,13.30
2018-04-10T01:08:31.615Z,13.30
2018-04-10T01:10:59.102Z,13.30
2018-04-10T01:13:26.621Z,13.40
2018-04-10T01:15:54.120Z,13.50
2018-04-10T01:18:22.894Z,13.60
2018-04-10T01:20:50.377Z,13.70
2018-04-10T01:23:17.905Z,13.70
2018-04-10T01:25:45.389Z,13.70
2018-04-10T01:28:12.917Z,13.60
2018-04-10T01:30:40.465Z,13.40
2018-04-10T01:33:07.986Z,13.30
2018-04-10T01:35:35.486Z,13.20
2018-04-10T01:38:03.012Z,13.20
2018-04-10T01:40:30.501Z,13.30
2018-04-10T01:42:58.037Z,13.30
2018-04-10T01:45:25.522Z,13.30
2018-04-10T01:47:53.045Z,13.20
2018-04-10T01:50:20.732Z,13.00
2018-04-10T01:52:48.601Z,12.90
2018-04-10T01:55:16.130Z,12.70
2018-04-10T01:57:43.621Z,12.60
2018-04-10T02:00:11.934Z,12.50
2018-04-10T02:02:39.439Z,12.50
2018-04-10T02:05:06.961Z,12.40
2018-04-10T02:07:35.247Z,12.20
2018-04-10T02:10:04.607Z,12.20
2018-04-10T02:12:32.098Z,12.20
2018-04-10T02:14:59.609Z,12.20
2018-04-10T02:17:27.113Z,12.30
2018-04-10T02:19:54.601Z,12.40
2018-04-10T02:22:22.135Z,12.50
2018-04-10T02:24:49.642Z,12.50
2018-04-10T02:27:17.158Z,12.50
2018-04-10T02:29:45.433Z,12.50
2018-04-10T02:32:12.980Z,12.50
2018-04-10T02:34:40.507Z,12.40
2018-04-10T02:37:08.757Z,12.30
2018-04-10T02:39:36.245Z,12.30
2018-04-10T02:42:03.774Z,12.30
2018-04-10T02:44:31.297Z,12.30
2018-04-10T02:46:59.673Z,12.40
2018-04-10T02:49:27.159Z,12.30
2018-04-10T02:51:54.733Z,12.40
2018-04-10T02:54:22.988Z,12.40
2018-04-10T02:56:50.521Z,12.40
2018-04-10T02:59:18.026Z,12.50
2018-04-10T03:01:45.564Z,12.50
2018-04-10T03:04:13.051Z,12.40
2018-04-10T03:06:40.576Z,12.40
2018-04-10T03:09:08.065Z,12.40
2018-04-10T03:11:35.581Z,12.40
2018-04-10T03:14:03.068Z,12.50
2018-04-10T03:16:30.609Z,12.50
2018-04-10T03:18:58.089Z,12.50
2018-04-10T03:21:25.609Z,12.50
2018-04-10T03:23:53.861Z,12.60
2018-04-10T03:26:21.392Z,12.60
2018-04-10T03:28:48.881Z,12.70
2018-04-10T03:31:16.362Z,12.70
2018-04-10T03:33:43.886Z,12.70
2018-04-10T03:36:12.137Z,12.70
2018-04-10T03:38:39.662Z,12.60
2018-04-10T03:41:07.142Z,12.70
2018-04-10T03:43:34.671Z,12.60
2018-04-10T03:46:02.802Z,12.50
2018-04-10T03:48:30.323Z,12.50
2018-04-10T03:50:57.817Z,12.50
2018-04-10T03:53:25.329Z,12.50
2018-04-10T03:55:52.877Z,12.40
2018-04-10T03:58:20.414Z,12.40
2018-04-10T04:00:47.939Z,12.30
2018-04-10T04:03:15.469Z,12.20
2018-04-10T04:05:42.971Z,12.10
2018-04-10T04:08:10.501Z,12.00
2018-04-10T04:10:38.769Z,11.80
2018-04-10T04:13:06.290Z,11.70
2018-04-10T04:15:33.823Z,11.60
2018-04-10T04:18:01.330Z,11.60
2018-04-10T04:20:40.808Z,11.60
2018-04-10T04:23:08.357Z,11.60
2018-04-10T04:25:35.921Z,11.60
2018-04-10T04:28:03.405Z,11.60
2018-04-10T04:30:30.917Z,11.50
2018-04-10T04:32:58.439Z,11.50
2018-04-10T04:35:26.738Z,11.20
2018-04-10T04:37:54.565Z,11.20
2018-04-10T04:40:22.093Z,11.10
2018-04-10T04:42:49.626Z,11.10
2018-04-10T04:45:17.129Z,11.00
2018-04-10T04:47:44.657Z,10.90
2018-04-10T04:50:12.151Z,10.90
2018-04-10T04:52:39.717Z,10.90
2018-04-10T04:55:07.201Z,10.90
2018-04-10T04:57:35.487Z,11.00
2018-04-10T05:00:03.737Z,11.10
2018-04-10T05:02:31.258Z,11.00
2018-04-10T05:04:59.509Z,11.20
2018-04-10T05:07:27.038Z,11.10
2018-04-10T05:09:54.529Z,11.10
2018-04-10T05:12:22.045Z,11.30
2018-04-10T05:14:49.537Z,11.30
2018-04-10T05:17:17.824Z,11.50
2018-04-10T05:19:46.074Z,11.50
2018-04-10T05:22:13.658Z,11.50
2018-04-10T05:24:41.155Z,11.50
2018-04-10T05:27:08.639Z,11.60
2018-04-10T05:29:36.141Z,11.60
2018-04-10T05:32:03.630Z,11.60
2018-04-10T05:34:31.161Z,11.50
2018-04-10T05:36:58.649Z,11.60
2018-04-10T05:39:26.177Z,11.60
2018-04-10T05:41:54.523Z,11.70
2018-04-10T05:44:22.074Z,11.70
2018-04-10T05:46:49.586Z,11.80
2018-04-10T05:49:17.117Z,11.80
2018-04-10T05:51:44.643Z,11.90
2018-04-10T05:54:12.195Z,12.00
2018-04-10T05:56:39.768Z,12.00
2018-04-10T05:59:07.293Z,12.00
2018-04-10T06:01:34.871Z,12.00
2018-04-10T06:04:02.398Z,12.00
2018-04-10T06:06:29.929Z,12.10
2018-04-10T06:08:57.439Z,12.10
2018-04-10T06:11:25.749Z,12.10
2018-04-10T06:13:54.008Z,12.10
2018-04-10T06:16:21.533Z,12.10
2018-04-10T06:18:49.026Z,12.20
2018-04-10T06:21:16.537Z,12.20
2018-04-10T06:23:44.022Z,12.30
2018-04-10T06:26:12.305Z,12.40
2018-04-10T06:28:39.803Z,12.40
2018-04-10T06:31:07.734Z,12.50
2018-04-10T06:33:35.214Z,12.50
2018-04-10T06:36:02.745Z,12.60
2018-04-10T06:38:30.309Z,12.60
2018-04-10T06:40:57.800Z,12.70
2018-04-10T06:43:25.328Z,12.80
2018-04-10T06:45:53.604Z,12.90
2018-04-10T06:48:21.913Z,13.10
2018-04-10T06:50:50.210Z,13.20
2018-04-10T06:53:17.731Z,13.20
2018-04-10T06:55:45.209Z,13.40
2018-04-10T06:58:12.733Z,13.50
2018-04-10T07:00:40.213Z,13.60
2018-04-10T07:03:07.736Z,13.70
2018-04-10T07:05:35.221Z,13.80
2018-04-10T07:08:02.747Z,14.00
2018-04-10T07:10:30.232Z,14.30
2018-04-10T07:12:57.786Z,14.50
2018-04-10T07:15:25.282Z,14.90
2018-04-10T07:17:52.772Z,15.30
2018-04-10T07:20:21.068Z,15.60
2018-04-10T07:22:49.329Z,15.60
2018-04-10T07:25:16.855Z,15.60
2018-04-10T07:27:44.390Z,16.10
2018-04-10T07:30:11.877Z,16.70
2018-04-10T07:32:39.374Z,17.40
2018-04-10T07:35:06.894Z,18.00
2018-04-10T07:37:34.389Z,18.30
2018-04-10T07:40:02.674Z,18.40
2018-04-10T07:42:30.929Z,18.10
2018-04-10T07:44:58.458Z,18.10
2018-04-10T07:47:25.973Z,18.10
2018-04-10T07:49:53.521Z,18.30
2018-04-10T07:52:21.009Z,18.50
2018-04-10T07:54:48.537Z,18.50
2018-04-10T07:57:16.023Z,18.20
2018-04-10T07:59:43.513Z,17.80
2018-04-10T08:02:11.037Z,17.50
2018-04-10T08:04:39.290Z,16.90
2018-04-10T08:07:06.813Z,16.90
2018-04-10T08:09:34.304Z,16.80
2018-04-10T08:12:01.821Z,16.60
2018-04-10T08:14:29.309Z,16.60
2018-04-10T08:16:56.841Z,16.60
2018-04-10T08:19:25.106Z,16.80
2018-04-10T08:21:52.630Z,16.80
2018-04-10T08:24:20.121Z,17.00
2018-04-10T08:26:47.773Z,17.20
2018-04-10T08:29:15.322Z,17.20
2018-04-10T08:31:42.846Z,17.30
2018-04-10T08:34:10.385Z,17.50
2018-04-10T08:36:37.955Z,17.50
2018-04-10T08:39:06.325Z,17.50
2018-04-10T08:41:33.813Z,17.60
2018-04-10T08:44:01.337Z,17.70
2018-04-10T08:46:28.834Z,17.80
2018-04-10T08:48:56.353Z,18.50
2018-04-10T08:51:24.601Z,19.50
2018-04-10T08:53:52.148Z,19.50
2018-04-10T08:56:19.635Z,19.60
2018-04-10T08:58:47.149Z,19.70
2018-04-10T09:01:15.405Z,19.90
2018-04-10T09:03:42.927Z,19.90
2018-04-10T09:06:10.405Z,20.00
2018-04-10T09:08:37.932Z,19.90
2018-04-10T09:11:05.414Z,19.90
2018-04-10T09:13:32.933Z,20.10
2018-04-10T09:16:00.694Z,20.30
2018-04-10T09:18:28.243Z,20.60
2018-04-10T09:20:56.513Z,21.10
2018-04-10T09:23:23.993Z,21.00
2018-04-10T09:25:51.510Z,21.10
2018-04-10T09:28:19.002Z,21.00
2018-04-10T09:30:46.498Z,21.40
2018-04-10T09:33:14.022Z,21.30
2018-04-10T09:35:41.542Z,21.80
2018-04-10T09:38:09.805Z,22.10
2018-04-10T09:40:37.321Z,22.10
2018-04-10T09:43:05.571Z,22.50
2018-04-10T09:45:33.089Z,22.50
2018-04-10T09:48:00.586Z,22.20
2018-04-10T09:50:28.118Z,21.70
2018-04-10T09:52:55.677Z,21.10
2018-04-10T09:55:23.207Z,20.70
2018-04-10T09:57:50.685Z,20.30
2018-04-10T10:00:23.786Z,19.90
2018-04-10T10:02:51.270Z,19.80
2018-04-10T10:05:18.761Z,19.40
2018-04-10T10:07:46.279Z,19.20
2018-04-10T10:10:13.765Z,19.20
2018-04-10T10:12:41.331Z,19.30
2018-04-10T10:15:08.799Z,19.20
2018-04-10T10:17:36.331Z,19.20
2018-04-10T10:20:03.817Z,19.10
2018-04-10T10:22:31.416Z,19.00
2018-04-10T10:24:58.902Z,19.10
2018-04-10T10:27:26.429Z,19.20
2018-04-10T10:29:54.697Z,19.00
2018-04-10T10:32:22.215Z,19.00
2018-04-10T10:34:49.703Z,19.00
2018-04-10T10:37:17.230Z,19.00
2018-04-10T10:39:45.488Z,19.00
2018-04-10T10:42:13.006Z,19.00
2018-04-10T10:44:41.293Z,18.90
2018-04-10T10:47:08.860Z,18.90
2018-04-10T10:49:36.317Z,18.90
2018-04-10T10:52:03.807Z,19.00
2018-04-10T10:54:31.349Z,19.00
2018-04-10T10:56:59.622Z,18.80
2018-04-10T10:59:27.157Z,18.80
2018-04-10T11:01:54.673Z,18.90
2018-04-10T11:04:22.213Z,18.70
2018-04-10T11:06:49.701Z,18.60
2018-04-10T11:09:17.217Z,18.60
2018-04-10T11:11:45.465Z,18.40
2018-04-10T11:14:13.063Z,18.30
2018-04-10T11:16:41.329Z,18.40
2018-04-10T11:19:08.863Z,18.40
2018-04-10T11:21:36.367Z,18.60
2018-04-10T11:24:03.877Z,18.80
2018-04-10T11:26:31.373Z,19.00
2018-04-10T11:28:58.893Z,19.10
2018-04-10T11:31:26.374Z,19.20
2018-04-10T11:33:53.917Z,19.60
2018-04-10T11:36:21.401Z,19.90
2018-04-10T11:38:48.929Z,20.10
2018-04-10T11:41:16.410Z,20.30
2018-04-10T11:43:43.937Z,20.60
2018-04-10T11:46:11.431Z,21.00
2018-04-10T11:48:38.929Z,21.20
2018-04-10T11:51:06.450Z,21.50
2018-04-10T11:53:33.933Z,21.90
2018-04-10T11:56:01.471Z,21.90
2018-04-10T11:58:28.949Z,22.50
2018-04-10T12:00:56.482Z,23.00
2018-04-10T12:03:23.985Z,22.90
2018-04-10T12:05:51.515Z,22.40
2018-04-10T12:08:19.005Z,22.10
2018-04-10T12:10:46.525Z,22.20
2018-04-10T12:13:14.009Z,22.50
2018-04-10T12:15:50.317Z,22.80
2018-04-10T12:18:33.853Z,22.80
2018-04-10T12:21:01.527Z,23.00
2018-04-10T12:23:29.023Z,23.00
2018-04-10T12:25:56.533Z,22.90
2018-04-10T12:28:24.013Z,22.60
2018-04-10T12:30:51.525Z,22.30
2018-04-10T12:33:19.018Z,22.30
2018-04-10T12:35:46.530Z,22.50
2018-04-10T12:38:14.089Z,22.50
2018-04-10T12:40:41.625Z,22.30
2018-04-10T12:43:09.176Z,22.40
2018-04-10T12:45:36.686Z,22.30
2018-04-10T12:48:04.224Z,22.30
2018-04-10T12:50:31.717Z,22.50
2018-04-10T12:52:59.244Z,22.60
2018-04-10T12:55:27.502Z,22.80
2018-04-10T12:57:55.028Z,22.70
2018-04-10T13:00:22.518Z,22.70
2018-04-10T13:02:50.047Z,22.70
2018-04-10T13:05:17.573Z,22.60
2018-04-10T13:07:45.089Z,22.60
2018-04-10T13:10:13.350Z,22.20
2018-04-10T13:12:40.909Z,22.20
2018-04-10T13:15:08.447Z,21.80
2018-04-10T13:17:35.965Z,21.60
2018-04-10T13:20:03.475Z,21.40
2018-04-10T13:22:30.985Z,21.40
2018-04-10T13:24:58.509Z,21.60
2018-04-10T13:27:26.763Z,21.20
2018-04-10T13:29:54.281Z,21.10
2018-04-10T13:32:21.756Z,21.20
2018-04-10T13:34:49.278Z,21.20
2018-04-10T13:37:16.773Z,21.30
2018-04-10T13:39:44.305Z,21.50
2018-04-10T13:42:11.793Z,21.50
2018-04-10T13:44:39.317Z,21.60
2018-04-10T13:47:06.841Z,21.80
2018-04-10T13:49:34.378Z,21.80
2018-04-10T13:52:01.856Z,22.10
2018-04-10T13:54:29.387Z,22.10
2018-04-10T13:56:57.089Z,22.50
2018-04-10T13:59:24.625Z,22.60
2018-04-10T14:01:52.900Z,22.50
2018-04-10T14:04:20.404Z,22.50
2018-04-10T14:06:47.946Z,22.50
2018-04-10T14:09:16.220Z,22.10
2018-04-10T14:11:43.763Z,22.10
2018-04-10T14:14:11.271Z,22.30
2018-04-10T14:16:38.775Z,22.20
2018-04-10T14:19:06.257Z,21.90
2018-04-10T14:21:33.825Z,21.90
2018-04-10T14:24:01.734Z,22.00
2018-04-10T14:26:29.253Z,21.80
2018-04-10T14:28:56.740Z,21.90
2018-04-10T14:31:24.338Z,21.90
2018-04-10T14:33:51.929Z,21.60
2018-04-10T14:36:19.562Z,21.40
2018-04-10T14:38:47.062Z,21.50
2018-04-10T14:41:14.666Z,21.50
2018-04-10T14:43:42.177Z,21.50
2018-04-10T14:46:09.811Z,21.60
2018-04-10T14:48:37.658Z,21.40
2018-04-10T14:51:05.371Z,21.40
2018-04-10T14:53:32.934Z,21.30
2018-04-10T14:56:00.450Z,21.40
2018-04-10T14:58:40.893Z,21.30
2018-04-10T15:01:08.689Z,21.20
2018-04-10T15:03:37.096Z,21.00
2018-04-10T15:06:04.680Z,21.00
2018-04-10T15:08:32.980Z,20.70
2018-04-10T15:11:00.463Z,20.70
2018-04-10T15:13:28.008Z,20.60
2018-04-10T15:15:55.515Z,20.60
2018-04-10T15:18:23.046Z,20.50
2018-04-10T15:20:50.565Z,20.40
2018-04-10T15:23:18.082Z,20.40
2018-04-10T15:25:46.330Z,20.20
2018-04-10T15:28:13.854Z,20.20
2018-04-10T15:30:41.411Z,20.10
2018-04-10T15:33:09.742Z,20.00
2018-04-10T15:35:37.271Z,20.00
2018-04-10T15:38:04.922Z,20.00
2018-04-10T15:40:32.485Z,19.90
2018-04-10T15:43:00.131Z,19.90
2018-04-10T15:45:27.625Z,20.00
2018-04-10T15:47:55.239Z,19.80
2018-04-10T15:50:22.762Z,19.80
2018-04-10T15:52:52.664Z,19.80
2018-04-10T15:55:20.199Z,19.80
2018-04-10T15:57:47.694Z,19.90
2018-04-10T16:00:15.217Z,20.00
2018-04-10T16:02:42.822Z,20.00
2018-04-10T16:05:10.342Z,20.00
2018-04-10T16:07:38.056Z,20.00
2018-04-10T16:10:05.679Z,20.00
2018-04-10T16:12:33.185Z,20.10
2018-04-10T16:15:00.708Z,20.00
2018-04-10T16:17:28.358Z,20.00
2018-04-10T16:19:56.668Z,19.90
2018-04-10T16:22:24.929Z,19.80
2018-04-10T16:24:52.549Z,19.80
2018-04-10T16:27:20.032Z,19.70
2018-04-10T16:29:47.855Z,19.60
2018-04-10T16:32:15.369Z,19.40
2018-04-10T16:34:42.988Z,19.30
2018-04-10T16:37:10.649Z,19.20
2018-04-10T16:39:38.313Z,19.10
2018-04-10T16:42:11.550Z,19.10
2018-04-10T16:44:39.223Z,19.10
2018-04-10T16:47:06.841Z,19.10
2018-04-10T16:49:34.393Z,19.00
2018-04-10T16:52:01.969Z,18.90
2018-04-10T16:54:30.229Z,18.70
2018-04-10T16:56:57.747Z,18.70
2018-04-10T16:59:25.272Z,18.50
2018-04-10T17:01:52.762Z,18.50
2018-04-10T17:04:20.258Z,18.40
2018-04-10T17:06:47.773Z,18.30
2018-04-10T17:09:26.746Z,18.20
2018-04-10T17:11:54.338Z,18.00
2018-04-10T17:14:21.980Z,17.80
2018-04-10T17:16:49.569Z,17.50
2018-04-10T17:19:17.149Z,17.30
2018-04-10T17:21:45.525Z,16.80
2018-04-10T17:24:13.910Z,16.60
2018-04-10T17:26:41.488Z,16.50
2018-04-10T17:29:09.425Z,16.30
2018-04-10T17:31:37.848Z,16.10
2018-04-10T17:34:06.347Z,16.00
2018-04-10T17:36:33.963Z,15.80
2018-04-10T17:39:01.591Z,15.70
2018-04-10T17:41:29.137Z,15.60
2018-04-10T17:43:56.701Z,15.50
2018-04-10T17:46:24.285Z,15.40
2018-04-10T17:48:51.790Z,15.30
2018-04-10T17:51:19.277Z,15.20
2018-04-10T17:53:47.569Z,15.10
2018-04-10T17:56:15.833Z,15.10
2018-04-10T17:58:43.365Z,15.10
2018-04-10T18:01:10.920Z,15.10
2018-04-10T18:03:38.489Z,15.00
2018-04-10T18:06:06.725Z,14.90
2018-04-10T18:08:34.238Z,14.90
2018-04-10T18:11:01.744Z,14.90
2018-04-10T18:13:29.269Z,14.80
2018-04-10T18:15:58.404Z,14.70
2018-04-10T18:18:25.936Z,14.70
2018-04-10T18:20:53.419Z,14.70
2018-04-10T18:23:20.952Z,14.70
2018-04-10T18:25:48.432Z,14.70
2018-04-10T18:28:15.954Z,14.60
2018-04-10T18:30:43.468Z,14.60
2018-04-10T18:33:10.990Z,14.60
2018-04-10T18:35:38.482Z,14.60
2018-04-10T18:38:06.038Z,14.50
2018-04-10T18:40:33.549Z,14.60
2018-04-10T18:43:05.646Z,14.60
2018-04-10T18:45:33.180Z,14.60
2018-04-10T18:48:00.685Z,14.60
2018-04-10T18:50:28.237Z,14.60
2018-04-10T18:52:55.726Z,14.70
2018-04-10T18:55:23.272Z,14.70
2018-04-10T18:57:51.569Z,14.50
2018-04-10T19:00:19.130Z,14.50
2018-04-10T19:02:46.610Z,14.50
2018-04-10T19:05:14.121Z,14.40
2018-04-10T19:07:41.605Z,14.30
2018-04-10T19:10:09.126Z,14.30
2018-04-10T19:12:36.640Z,14.20
2018-04-10T19:15:04.173Z,14.20
2018-04-10T19:17:31.804Z,14.20
2018-04-10T19:20:00.123Z,14.10
2018-04-10T19:22:27.618Z,14.10
2018-04-10T19:24:55.125Z,14.00
2018-04-10T19:27:22.709Z,13.80
2018-04-10T19:29:51.057Z,13.60
2018-04-10T19:32:18.635Z,13.60
2018-04-10T19:34:46.124Z,13.50
2018-04-10T19:37:14.435Z,13.40
2018-04-10T19:39:41.930Z,13.30
2018-04-10T19:42:09.454Z,13.30
2018-04-10T19:44:36.958Z,13.30
2018-04-10T19:47:04.491Z,13.30
2018-04-10T19:49:32.736Z,13.30
2018-04-10T19:52:00.269Z,13.30
2018-04-10T19:54:27.770Z,13.30
2018-04-10T19:56:55.357Z,13.20
2018-04-10T19:59:22.854Z,13.20
2018-04-10T20:01:50.404Z,13.20
2018-04-10T20:04:19.588Z,13.20
2018-04-10T20:06:47.118Z,13.10
2018-04-10T20:09:14.653Z,13.10
2018-04-10T20:11:42.174Z,13.10
2018-04-10T20:14:10.446Z,13.20
2018-04-10T20:16:37.968Z,13.20
2018-04-10T20:19:06.250Z,13.30
2018-04-10T20:21:33.764Z,13.20
2018-04-10T20:24:01.317Z,13.10
2018-04-10T20:26:28.894Z,13.10
2018-04-10T20:28:57.118Z,13.00
2018-04-10T20:31:24.634Z,12.90
2018-04-10T20:33:52.241Z,12.90
2018-04-10T20:36:19.769Z,12.80
2018-04-10T20:38:47.313Z,12.80
2018-04-10T20:41:14.846Z,12.80
2018-04-10T20:43:42.377Z,12.70
2018-04-10T20:46:10.623Z,12.70
2018-04-10T20:48:38.145Z,12.60
2018-04-10T20:51:06.426Z,12.60
2018-04-10T20:53:34.717Z,12.60
2018-04-10T20:56:02.229Z,12.50
2018-04-10T20:58:29.761Z,12.50
2018-04-10T21:00:58.010Z,12.50
2018-04-10T21:03:25.565Z,12.50
2018-04-10T21:05:53.054Z,12.50
2018-04-10T21:08:20.589Z,12.50
2018-04-10T21:10:48.177Z,12.40
2018-04-10T21:13:15.875Z,12.40
2018-04-10T21:15:43.431Z,12.40
2018-04-10T21:18:10.923Z,12.40
2018-04-10T21:20:38.458Z,12.30
2018-04-10T21:23:05.953Z,12.30
2018-04-10T21:25:33.480Z,12.20
2018-04-10T21:28:01.729Z,12.10
2018-04-10T21:30:29.229Z,12.10
2018-04-10T21:32:57.473Z,12.10
2018-04-10T21:35:25.005Z,12.00
2018-04-10T21:37:52.505Z,12.00
2018-04-10T21:40:20.031Z,11.90
2018-04-10T21:42:54.018Z,11.80
2018-04-10T21:45:21.551Z,11.80
2018-04-10T21:47:49.033Z,11.80
2018-04-10T21:50:16.565Z,11.80
2018-04-10T21:52:44.047Z,11.70
2018-04-10T21:55:11.576Z,11.70
2018-04-10T21:57:39.062Z,11.70
2018-04-10T22:00:06.545Z,11.60
2018-04-10T22:02:34.086Z,11.60
2018-04-10T22:05:01.573Z,11.50
2018-04-10T22:07:29.093Z,11.50
2018-04-10T22:09:56.577Z,11.50
2018-04-10T22:12:24.114Z,11.40
2018-04-10T22:14:52.417Z,11.30
2018-04-10T22:17:20.710Z,11.30
2018-04-10T22:19:48.961Z,11.30
2018-04-10T22:22:16.488Z,11.20
2018-04-10T22:24:43.966Z,11.20
2018-04-10T22:27:11.497Z,11.20
2018-04-10T22:29:38.989Z,11.20
2018-04-10T22:32:06.478Z,11.40
2018-04-10T22:34:33.970Z,11.40
2018-04-10T22:37:01.455Z,11.30
2018-04-10T22:39:28.966Z,11.20
2018-04-10T22:41:56.454Z,11.10
2018-04-10T22:44:23.978Z,11.00
2018-04-10T22:46:51.462Z,10.90
2018-04-10T22:49:18.981Z,10.90
2018-04-10T22:51:46.465Z,10.80
2018-04-10T22:54:14.842Z,10.80
2018-04-10T22:56:42.370Z,10.70
2018-04-10T22:59:09.882Z,10.80
2018-04-10T23:01:37.382Z,10.80
2018-04-10T23:04:05.686Z,10.70
2018-04-10T23:06:33.196Z,10.70
2018-04-10T23:09:00.683Z,10.70
2018-04-10T23:11:28.209Z,10.70
2018-04-10T23:13:56.462Z,10.60
2018-04-10T23:16:23.991Z,10.60
2018-04-10T23:18:51.485Z,10.50
2018-04-10T23:21:19.011Z,10.50
2018-04-10T23:23:46.498Z,10.50
2018-04-10T23:26:14.012Z,10.50
2018-04-10T23:28:41.495Z,10.50
2018-04-10T23:31:09.022Z,10.50
2018-04-10T23:33:36.513Z,10.50
2018-04-10T23:36:04.037Z,10.50
2018-04-10T23:38:31.521Z,10.50
2018-04-10T23:40:59.427Z,10.60
2018-04-10T23:43:27.679Z,10.90
2018-04-10T23:45:55.165Z,10.90
2018-04-10T23:48:22.695Z,11.00
2018-04-10T23:50:50.277Z,11.00
2018-04-10T23:53:17.845Z,11.00
2018-04-10T23:55:45.322Z,10.90
2018-04-10T23:58:12.835Z,10.90
